createdAt,value
2019-01-18T00:01:45.696Z,1.52
2019-01-18T00:07:50.270Z,1.48
2019-01-18T00:13:54.915Z,1.53
2019-01-18T00:19:59.552Z,1.52
2019-01-18T00:26:04.281Z,1.60
2019-01-18T00:32:09.123Z,1.63
2019-01-18T00:38:13.771Z,1.64
2019-01-18T00:44:18.347Z,1.65
2019-01-18T00:50:23.213Z,1.69
2019-01-18T00:56:28.516Z,1.76
2019-01-18T01:02:33.226Z,1.65
2019-01-18T01:08:37.885Z,1.69
2019-01-18T01:14:42.644Z,1.67
2019-01-18T01:20:47.343Z,1.60
2019-01-18T01:26:52.067Z,1.66
2019-01-18T01:32:56.820Z,1.38
2019-01-18T01:39:01.386Z,0.73
2019-01-18T01:45:09.907Z,0.77
2019-01-18T01:51:15.675Z,0.69
2019-01-18T01:57:21.942Z,0.77
2019-01-18T02:03:27.470Z,0.73
2019-01-18T02:09:33.257Z,0.73
2019-01-18T02:15:37.844Z,0.82
2019-01-18T02:21:44.033Z,0.55
2019-01-18T02:27:48.766Z,0.58
2019-01-18T02:33:54.895Z,0.52
2019-01-18T02:40:00.789Z,0.62
2019-01-18T02:46:08.410Z,0.50
2019-01-18T02:52:13.269Z,0.40
2019-01-18T02:58:18.310Z,0.38
2019-01-18T03:04:24.512Z,0.33
2019-01-18T03:10:31.354Z,0.22
2019-01-18T03:16:36.174Z,0.17
2019-01-18T03:22:41.404Z,-0.05
2019-01-18T03:28:46.183Z,-0.10
2019-01-18T03:34:50.856Z,-0.15
2019-01-18T03:40:55.648Z,-0.07
2019-01-18T03:47:00.296Z,-0.18
2019-01-18T03:53:05.185Z,-0.35
2019-01-18T03:59:10.218Z,-0.38
2019-01-18T04:05:17.789Z,-0.38
2019-01-18T04:11:23.581Z,-0.27
2019-01-18T04:17:28.324Z,-0.32
2019-01-18T04:23:32.966Z,-0.38
2019-01-18T04:29:37.643Z,-0.49
2019-01-18T04:35:42.805Z,-0.60
2019-01-18T04:41:47.898Z,-0.71
2019-01-18T04:47:52.676Z,-0.72
2019-01-18T04:54:01.065Z,-0.86
2019-01-18T05:00:13.203Z,-0.83
2019-01-18T05:06:17.757Z,-0.83
2019-01-18T05:12:22.503Z,-1.00
2019-01-18T05:18:27.057Z,-0.98
2019-01-18T05:24:31.671Z,-0.96
2019-01-18T05:30:36.268Z,-1.08
2019-01-18T05:36:40.888Z,-1.17
2019-01-18T05:42:46.866Z,-1.15
2019-01-18T05:48:51.793Z,-1.18
2019-01-18T05:54:56.372Z,-1.21
2019-01-18T06:01:02.546Z,-1.31
2019-01-18T06:07:07.087Z,-1.29
2019-01-18T06:13:11.811Z,-1.37
2019-01-18T06:19:16.353Z,-1.45
2019-01-18T06:25:20.969Z,-1.39
2019-01-18T06:31:25.898Z,-1.44
2019-01-18T06:37:30.448Z,-1.48
2019-01-18T06:43:34.990Z,-1.46
2019-01-18T06:49:39.533Z,-1.50
2019-01-18T06:55:45.408Z,-1.50
2019-01-18T07:01:50.055Z,-1.49
2019-01-18T07:07:55.146Z,-1.53
2019-01-18T07:13:59.696Z,-1.64
2019-01-18T07:20:08.314Z,-1.73
2019-01-18T07:26:12.881Z,-1.82
2019-01-18T07:32:17.420Z,-1.89
2019-01-18T07:38:22.970Z,-1.94
2019-01-18T07:44:27.844Z,-1.93
2019-01-18T07:50:32.439Z,-1.80
2019-01-18T07:56:37.002Z,-1.83
2019-01-18T08:02:41.632Z,-1.69
2019-01-18T08:08:46.991Z,-1.65
2019-01-18T08:14:51.527Z,-1.51
2019-01-18T08:20:56.079Z,-1.38
2019-01-18T08:27:00.697Z,-1.30
2019-01-18T08:33:05.377Z,-1.33
2019-01-18T08:39:09.978Z,-1.24
2019-01-18T08:45:30.617Z,-1.19
2019-01-18T08:51:35.160Z,-1.29
2019-01-18T08:57:40.044Z,-1.21
2019-01-18T09:03:44.595Z,-1.20
2019-01-18T09:09:49.138Z,-1.10
2019-01-18T09:15:54.484Z,-0.97
2019-01-18T09:21:59.109Z,-1.00
2019-01-18T09:28:05.658Z,-0.84
2019-01-18T09:34:10.686Z,-0.86
2019-01-18T09:40:19.591Z,-0.73
2019-01-18T09:46:24.301Z,-0.66
2019-01-18T09:52:28.919Z,-0.60
2019-01-18T09:58:33.702Z,-0.34
2019-01-18T10:04:38.448Z,-0.22
2019-01-18T10:10:43.965Z,-0.12
2019-01-18T10:16:48.591Z,0.07
2019-01-18T10:22:53.295Z,0.22
2019-01-18T10:28:57.925Z,0.34
2019-01-18T10:35:02.537Z,0.31
2019-01-18T10:41:07.167Z,0.62
2019-01-18T10:47:11.852Z,0.69
2019-01-18T10:53:16.487Z,0.66
2019-01-18T10:59:22.971Z,0.76
2019-01-18T11:05:27.803Z,0.75
2019-01-18T11:11:32.466Z,1.17
2019-01-18T11:17:37.050Z,1.18
2019-01-18T11:23:41.793Z,1.46
2019-01-18T11:29:47.950Z,1.53
2019-01-18T11:35:52.750Z,1.52
2019-01-18T11:41:57.459Z,1.41
2019-01-18T11:48:03.379Z,1.57
2019-01-18T11:54:08.083Z,1.82
2019-01-18T12:00:19.932Z,2.10
2019-01-18T12:06:24.585Z,2.36
2019-01-18T12:12:29.503Z,2.43
2019-01-18T12:18:34.147Z,2.23
2019-01-18T12:24:38.895Z,2.50
2019-01-18T12:30:47.119Z,2.68
2019-01-18T12:36:58.588Z,3.03
2019-01-18T12:43:00.916Z,3.16
2019-01-18T12:49:05.796Z,3.11
2019-01-18T12:55:10.712Z,3.07
2019-01-18T13:01:15.404Z,3.09
2019-01-18T13:07:20.405Z,3.03
2019-01-18T13:13:24.952Z,3.04
2019-01-18T13:19:29.492Z,3.30
2019-01-18T13:25:34.108Z,3.14
2019-01-18T13:31:38.801Z,3.09
2019-01-18T13:37:43.461Z,3.13
2019-01-18T13:43:48.091Z,3.00
2019-01-18T13:49:54.556Z,3.03
2019-01-18T13:55:59.109Z,2.90
2019-01-18T14:02:03.780Z,3.01
2019-01-18T14:08:08.326Z,2.84
2019-01-18T14:14:14.080Z,2.73
2019-01-18T14:20:24.639Z,2.81
2019-01-18T14:26:29.313Z,2.72
2019-01-18T14:32:33.923Z,2.64
2019-01-18T14:38:38.461Z,2.50
2019-01-18T14:44:42.999Z,2.42
2019-01-18T14:50:47.607Z,2.34
2019-01-18T14:56:52.138Z,2.10
2019-01-18T15:03:02.446Z,1.98
2019-01-18T15:09:09.984Z,1.96
2019-01-18T15:15:16.226Z,1.91
2019-01-18T15:21:20.785Z,1.76
2019-01-18T15:27:25.317Z,1.68
2019-01-18T15:33:31.092Z,1.39
2019-01-18T15:39:35.623Z,1.28
2019-01-18T15:45:40.836Z,1.05
2019-01-18T15:51:45.370Z,0.71
2019-01-18T15:57:50.163Z,0.39
2019-01-18T16:03:54.780Z,0.27
2019-01-18T16:09:59.336Z,-0.04
2019-01-18T16:16:08.393Z,-0.03
2019-01-18T16:22:13.025Z,-0.21
2019-01-18T16:28:17.566Z,-0.42
2019-01-18T16:34:22.103Z,-0.57
2019-01-18T16:40:35.246Z,-0.59
2019-01-18T16:46:39.803Z,-0.54
2019-01-18T16:52:44.718Z,-0.69
2019-01-18T16:58:49.603Z,-0.72
2019-01-18T17:04:54.504Z,-0.57
2019-01-18T17:10:59.044Z,-0.52
2019-01-18T17:17:03.593Z,-0.60
2019-01-18T17:23:08.290Z,-0.61
2019-01-18T17:29:12.853Z,-0.77
2019-01-18T17:35:29.129Z,-0.77
2019-01-18T17:41:59.025Z,-0.49
2019-01-18T17:48:10.800Z,-0.47
2019-01-18T17:54:28.830Z,-0.33
2019-01-18T18:00:40.584Z,-0.50
2019-01-18T18:07:01.556Z,-0.51
2019-01-18T18:13:30.478Z,-0.56
2019-01-18T18:20:07.820Z,-0.61
2019-01-18T18:26:46.686Z,-0.67
2019-01-18T18:33:10.947Z,-0.73
2019-01-18T18:39:20.201Z,-0.77
2019-01-18T18:45:40.986Z,-0.68
2019-01-18T18:52:30.780Z,-0.74
2019-01-18T18:58:56.723Z,-0.69
2019-01-18T19:05:20.408Z,-0.57
2019-01-18T19:11:35.591Z,-0.81
2019-01-18T19:18:08.543Z,-0.88
2019-01-18T19:24:56.894Z,-0.92
2019-01-18T19:31:30.674Z,-0.68
2019-01-18T19:37:55.869Z,-0.83
2019-01-18T19:44:05.132Z,-0.80
2019-01-18T19:50:33.508Z,-1.13
2019-01-18T19:56:51.550Z,-1.25
2019-01-18T20:03:16.997Z,-1.26
2019-01-18T20:09:33.665Z,-1.39
2019-01-18T20:15:54.654Z,-1.32
2019-01-18T20:22:03.981Z,-1.32
2019-01-18T20:28:30.832Z,-1.43
2019-01-18T20:34:54.115Z,-1.47
2019-01-18T20:41:28.637Z,-1.56
2019-01-18T20:48:13.694Z,-1.54
2019-01-18T20:54:49.797Z,-1.54
2019-01-18T21:01:01.867Z,-1.50
2019-01-18T21:07:25.670Z,-1.39
2019-01-18T21:13:52.718Z,-1.40
2019-01-18T21:20:04.785Z,-1.39
2019-01-18T21:26:20.818Z,-1.54
2019-01-18T21:32:55.786Z,-1.49
2019-01-18T21:39:07.867Z,-1.70
2019-01-18T21:45:22.649Z,-1.53
2019-01-18T21:52:00.094Z,-1.60
2019-01-18T21:58:14.939Z,-1.60
2019-01-18T22:04:28.979Z,-1.77
2019-01-18T22:10:44.058Z,-1.70
2019-01-18T22:17:18.548Z,-1.71
2019-01-18T22:23:36.620Z,-1.87
2019-01-18T22:29:58.913Z,-1.84
2019-01-18T22:36:42.482Z,-1.90
2019-01-18T22:43:09.524Z,-1.93
2019-01-18T22:49:54.381Z,-1.88
2019-01-18T22:56:39.387Z,-1.83
2019-01-18T23:02:54.068Z,-2.01
2019-01-18T23:09:21.238Z,-2.03
2019-01-18T23:16:19.742Z,-2.06
2019-01-18T23:22:36.944Z,-2.11
2019-01-18T23:29:11.503Z,-2.15
2019-01-18T23:35:41.151Z,-2.22
2019-01-18T23:42:21.538Z,-2.26
2019-01-18T23:48:42.983Z,-2.36
2019-01-18T23:55:01.529Z,-2.43
